Time;durP1;ratioP1;P1;durP2;ratioP2;P2;SDS_P1;SDS_P2;PMS_P1;PMS_P2;Temp;Humidity;BMP_temperature;BMP_pressure;BME280_temperature;BME280_humidity;BME280_pressure;Samples;Min_cycle;Max_cycle;Signal;HPM_P1;HPM_P2
2023/11/25 06:01:07;;;;;;;9.47;3.13;;;;;;;;;;5708735;23;20582;-76
2023/11/25 06:03:33;;;;;;;6.63;2.60;;;;;;;;;;4937820;29;20418;-76
2023/11/25 06:05:59;;;;;;;9.40;2.27;;;;;;;;;;4936466;29;20449;-76
2023/11/25 06:08:25;;;;;;;4.73;2.03;;;;;;;;;;4937060;29;20763;-76
2023/11/25 06:10:51;;;;;;;6.23;2.50;;;;;;;;;;4919648;29;20988;-76
2023/11/25 06:13:17;;;;;;;4.80;2.43;;;;;;;;;;4918206;29;20403;-77
2023/11/25 06:15:43;;;;;;;8.50;2.50;;;;;;;;;;4921693;29;21031;-75
2023/11/25 06:18:12;;;;;;;6.20;2.30;;;;;;;;;;4935977;29;20741;-77
2023/11/25 06:20:38;;;;;;;15.03;3.63;;;;;;;;;;4936840;29;20437;-75
2023/11/25 06:23:04;;;;;;;8.20;2.50;;;;;;;;;;4935874;29;20420;-76
2023/11/25 06:25:30;;;;;;;6.83;1.70;;;;;;;;;;4936301;29;20429;-77
2023/11/25 06:27:56;;;;;;;7.37;2.23;;;;;;;;;;4935916;29;20473;-76
2023/11/25 06:30:22;;;;;;;3.20;2.40;;;;;;;;;;4947455;29;20496;-77
2023/11/25 06:32:48;;;;;;;9.87;2.17;;;;;;;;;;4938524;29;20473;-76
2023/11/25 06:35:15;;;;;;;6.07;2.80;;;;;;;;;;4937652;29;20556;-76
2023/11/25 06:37:41;;;;;;;9.83;2.47;;;;;;;;;;4946204;29;20449;-77
2023/11/25 06:40:07;;;;;;;4.20;2.27;;;;;;;;;;4935870;29;20421;-77
2023/11/25 06:42:34;;;;;;;5.80;2.17;;;;;;;;;;4936406;29;20410;-75
2023/11/25 06:45:01;;;;;;;4.03;2.53;;;;;;;;;;4934996;29;20425;-77
2023/11/25 06:47:27;;;;;;;8.93;1.87;;;;;;;;;;4935448;29;20421;-76
2023/11/25 06:49:53;;;;;;;7.60;2.17;;;;;;;;;;4935613;29;20430;-77
2023/11/25 06:52:19;;;;;;;7.20;2.70;;;;;;;;;;4935398;29;20437;-76
2023/11/25 06:54:45;;;;;;;7.90;4.43;;;;;;;;;;4935479;29;20579;-76
2023/11/25 06:57:11;;;;;;;9.33;2.57;;;;;;;;;;4935578;29;20425;-77
2023/11/25 06:59:40;;;;;;;6.07;2.30;;;;;;;;;;4935385;29;20862;-77
2023/11/25 07:02:06;;;;;;;3.80;2.10;;;;;;;;;;4935533;29;20966;-76
2023/11/25 07:04:32;;;;;;;7.93;1.97;;;;;;;;;;4936525;29;20829;-77
2023/11/25 07:06:58;;;;;;;2.80;2.37;;;;;;;;;;4939425;29;20431;-76
2023/11/25 07:09:24;;;;;;;4.80;2.60;;;;;;;;;;4939772;29;20481;-77
2023/11/25 07:11:50;;;;;;;11.37;3.43;;;;;;;;;;4940513;29;20441;-76
2023/11/25 07:14:18;;;;;;;6.37;2.00;;;;;;;;;;4938973;29;20471;-76
2023/11/25 07:16:45;;;;;;;6.67;2.60;;;;;;;;;;4938351;29;20421;-76
2023/11/25 07:19:11;;;;;;;4.00;2.10;;;;;;;;;;4938793;29;20464;-75
2023/11/25 07:21:37;;;;;;;5.77;2.07;;;;;;;;;;4938582;29;20444;-77
2023/11/25 07:24:03;;;;;;;5.50;2.30;;;;;;;;;;4933074;29;20503;-76
2023/11/25 07:26:29;;;;;;;8.20;1.83;;;;;;;;;;4921893;29;20555;-76
2023/11/25 07:28:56;;;;;;;5.23;1.70;;;;;;;;;;4939931;29;20425;-76
2023/11/25 07:31:22;;;;;;;6.73;2.17;;;;;;;;;;4936925;29;20445;-77
2023/11/25 07:33:49;;;;;;;4.07;1.93;;;;;;;;;;4939043;29;20413;-77
2023/11/25 07:36:15;;;;;;;5.30;2.00;;;;;;;;;;4938959;29;20461;-77
2023/11/25 07:38:41;;;;;;;6.17;1.80;;;;;;;;;;4938778;29;20409;-77
2023/11/25 07:41:15;;;;;;;5.23;2.20;;;;;;;;;;4938915;29;20435;-77
2023/11/25 07:43:41;;;;;;;10.13;2.00;;;;;;;;;;4938424;29;20414;-77
2023/11/25 07:46:09;;;;;;;10.97;2.40;;;;;;;;;;4938921;29;20414;-77
2023/11/25 07:48:36;;;;;;;6.90;2.63;;;;;;;;;;4937413;29;20428;-77
2023/11/25 07:51:02;;;;;;;4.03;2.10;;;;;;;;;;4940322;29;20504;-76
2023/11/25 07:53:28;;;;;;;5.50;2.20;;;;;;;;;;4953196;29;20418;-77
2023/11/25 07:55:54;;;;;;;3.50;1.80;;;;;;;;;;4938912;29;20556;-78
2023/11/25 07:58:22;;;;;;;2.60;1.97;;;;;;;;;;4934339;29;20414;-77
2023/11/25 08:00:49;;;;;;;6.27;1.83;;;;;;;;;;4923235;29;20442;-78
2023/11/25 08:03:16;;;;;;;5.27;2.40;;;;;;;;;;4944789;29;20456;-75
2023/11/25 08:05:44;;;;;;;12.20;2.10;;;;;;;;;;4946504;29;20505;-77
2023/11/25 08:08:11;;;;;;;5.10;2.67;;;;;;;;;;4938786;29;20414;-76
2023/11/25 08:10:37;;;;;;;3.37;2.27;;;;;;;;;;4937156;29;20533;-76
2023/11/25 08:13:03;;;;;;;6.40;2.60;;;;;;;;;;4938394;29;20444;-75
2023/11/25 08:15:29;;;;;;;6.03;1.93;;;;;;;;;;4938299;29;20964;-76
2023/11/25 08:17:58;;;;;;;8.20;2.53;;;;;;;;;;4945977;29;20421;-77
2023/11/25 08:20:24;;;;;;;30.37;2.47;;;;;;;;;;4947535;29;20577;-77
2023/11/25 08:22:50;;;;;;;12.60;2.97;;;;;;;;;;4945630;29;20418;-76
2023/11/25 08:25:16;;;;;;;6.93;3.77;;;;;;;;;;4925343;29;20790;-77
2023/11/25 08:27:42;;;;;;;4.73;2.03;;;;;;;;;;4917647;29;20431;-77
2023/11/25 08:30:08;;;;;;;3.83;1.83;;;;;;;;;;4921035;29;20418;-76
2023/11/25 08:32:44;;;;;;;8.03;2.60;;;;;;;;;;4921127;29;20450;-76
2023/11/25 08:35:10;;;;;;;6.23;3.30;;;;;;;;;;4928080;29;20464;-77
2023/11/25 08:37:39;;;;;;;8.13;2.00;;;;;;;;;;4937718;29;20417;-75
2023/11/25 08:40:09;;;;;;;2.90;1.93;;;;;;;;;;4933281;29;20407;-75
2023/11/25 08:42:36;;;;;;;6.50;2.37;;;;;;;;;;4918928;29;20791;-76
2023/11/25 08:45:02;;;;;;;2.53;1.90;;;;;;;;;;4921331;29;20419;-76
2023/11/25 08:47:28;;;;;;;8.03;2.00;;;;;;;;;;4920366;29;20440;-75
2023/11/25 08:49:56;;;;;;;5.83;1.77;;;;;;;;;;4932208;29;20512;-77
2023/11/25 08:52:23;;;;;;;5.30;1.97;;;;;;;;;;4937361;29;20437;-75
2023/11/25 08:54:49;;;;;;;13.77;4.73;;;;;;;;;;4938362;29;20465;-76
2023/11/25 08:57:16;;;;;;;5.33;2.00;;;;;;;;;;4936675;29;20422;-76
2023/11/25 08:59:42;;;;;;;9.83;2.27;;;;;;;;;;4938724;29;20410;-76
2023/11/25 09:02:12;;;;;;;4.20;1.80;;;;;;;;;;4936841;29;20512;-76
2023/11/25 09:04:42;;;;;;;5.77;2.30;;;;;;;;;;4939069;29;20433;-76
2023/11/25 09:07:11;;;;;;;26.13;2.37;;;;;;;;;;4937316;29;20421;-77
2023/11/25 09:09:38;;;;;;;4.13;1.40;;;;;;;;;;4933745;29;20434;-78
2023/11/25 09:12:04;;;;;;;4.13;1.60;;;;;;;;;;4937164;29;20445;-75
2023/11/25 09:14:30;;;;;;;7.77;2.73;;;;;;;;;;4934843;29;20473;-76
2023/11/25 09:16:56;;;;;;;5.37;2.30;;;;;;;;;;4934666;29;20418;-76
2023/11/25 09:19:23;;;;;;;8.47;2.17;;;;;;;;;;4932941;29;20474;-75
2023/11/25 09:21:49;;;;;;;7.40;2.53;;;;;;;;;;4935096;29;20446;-76
2023/11/25 09:24:15;;;;;;;5.07;2.60;;;;;;;;;;4933473;29;20422;-77
2023/11/25 09:26:41;;;;;;;3.07;1.87;;;;;;;;;;4934682;29;20470;-75
2023/11/25 09:29:07;;;;;;;13.60;3.83;;;;;;;;;;4936467;29;20480;-77
2023/11/25 09:31:33;;;;;;;14.63;2.80;;;;;;;;;;4935123;29;20441;-76
2023/11/25 09:34:02;;;;;;;9.70;2.20;;;;;;;;;;4936890;29;20511;-77
2023/11/25 09:36:29;;;;;;;5.10;2.37;;;;;;;;;;4936003;29;20469;-76
2023/11/25 09:38:55;;;;;;;16.37;3.07;;;;;;;;;;4942049;29;20422;-76
2023/11/25 09:41:22;;;;;;;14.63;2.30;;;;;;;;;;4944096;29;20447;-78
2023/11/25 09:43:48;;;;;;;18.57;3.67;;;;;;;;;;4951352;28;20468;-76
2023/11/25 09:46:16;;;;;;;6.87;2.50;;;;;;;;;;4934502;29;20425;-77
2023/11/25 09:48:42;;;;;;;8.70;3.10;;;;;;;;;;4943428;29;20425;-77
2023/11/25 09:51:08;;;;;;;14.03;2.90;;;;;;;;;;4940086;29;20464;-76
2023/11/25 09:53:37;;;;;;;11.03;3.07;;;;;;;;;;4938222;29;20508;-79
2023/11/25 09:56:06;;;;;;;11.80;2.80;;;;;;;;;;4932674;29;20466;-77
2023/11/25 09:58:34;;;;;;;7.67;3.00;;;;;;;;;;4939242;29;20425;-78
2023/11/25 10:01:00;;;;;;;15.90;3.67;;;;;;;;;;4941050;29;20479;-76
2023/11/25 10:03:28;;;;;;;16.20;3.00;;;;;;;;;;4940874;29;20932;-76
2023/11/25 10:05:54;;;;;;;10.20;3.47;;;;;;;;;;4946219;29;20809;-77
2023/11/25 10:08:20;;;;;;;9.03;3.37;;;;;;;;;;4942672;29;20986;-75
2023/11/25 10:10:58;;;;;;;16.27;3.17;;;;;;;;;;4929535;29;20533;-78
2023/11/25 10:13:25;;;;;;;9.03;3.23;;;;;;;;;;4941878;29;20431;-75
2023/11/25 10:15:51;;;;;;;11.20;3.30;;;;;;;;;;4937688;29;20519;-74
2023/11/25 10:18:17;;;;;;;9.50;2.63;;;;;;;;;;4948615;29;20412;-74
2023/11/25 10:20:43;;;;;;;9.37;2.60;;;;;;;;;;4965061;28;20421;-75
2023/11/25 10:23:09;;;;;;;14.37;3.63;;;;;;;;;;4950393;29;20607;-74
2023/11/25 10:25:36;;;;;;;14.33;3.87;;;;;;;;;;4947219;29;20426;-76
2023/11/25 10:28:02;;;;;;;13.00;3.00;;;;;;;;;;4934229;29;20421;-74
2023/11/25 10:30:28;;;;;;;14.93;3.50;;;;;;;;;;4934413;29;20940;-76
2023/11/25 10:32:56;;;;;;;7.07;2.57;;;;;;;;;;4935402;29;20437;-75
2023/11/25 10:35:24;;;;;;;9.60;3.20;;;;;;;;;;4935234;29;20840;-75
2023/11/25 10:37:51;;;;;;;12.53;3.13;;;;;;;;;;4933974;29;20501;-75
2023/11/25 10:40:19;;;;;;;15.60;3.57;;;;;;;;;;4937278;29;20913;-77
2023/11/25 10:42:46;;;;;;;12.00;3.30;;;;;;;;;;4939507;29;20414;-77
2023/11/25 10:45:15;;;;;;;10.03;3.63;;;;;;;;;;4938235;29;20429;-77
2023/11/25 10:47:42;;;;;;;11.03;3.10;;;;;;;;;;4941550;29;20419;-76
2023/11/25 10:50:08;;;;;;;22.13;3.63;;;;;;;;;;4943417;29;20424;-78
2023/11/25 10:52:38;;;;;;;10.17;3.10;;;;;;;;;;4942538;29;20512;-77
2023/11/25 10:55:05;;;;;;;12.27;3.20;;;;;;;;;;4939615;29;20480;-74
2023/11/25 10:57:33;;;;;;;8.80;3.47;;;;;;;;;;4937512;29;20902;-74
2023/11/25 10:59:59;;;;;;;16.50;3.20;;;;;;;;;;4938849;29;20417;-74
2023/11/25 11:02:29;;;;;;;13.70;3.13;;;;;;;;;;4939860;29;20937;-74
2023/11/25 11:04:58;;;;;;;20.43;3.50;;;;;;;;;;4939820;29;20771;-74
2023/11/25 11:07:25;;;;;;;9.17;2.50;;;;;;;;;;4939050;29;20417;-73
2023/11/25 11:09:53;;;;;;;15.13;3.37;;;;;;;;;;4947580;29;20413;-73
2023/11/25 11:12:55;;;;;;;10.33;2.50;;;;;;;;;;4941581;29;20516;-75
2023/11/25 11:15:21;;;;;;;9.63;2.87;;;;;;;;;;4862060;29;20476;-73
2023/11/25 11:17:47;;;;;;;12.10;3.33;;;;;;;;;;4924458;29;20429;-74
2023/11/25 11:20:13;;;;;;;17.03;4.10;;;;;;;;;;4939549;29;20900;-73
2023/11/25 11:22:42;;;;;;;6.63;2.97;;;;;;;;;;4923199;29;20448;-73
2023/11/25 11:25:08;;;;;;;11.07;3.07;;;;;;;;;;4919451;29;20422;-73
2023/11/25 11:27:40;;;;;;;11.57;3.80;;;;;;;;;;4919470;29;20419;-75
2023/11/25 11:30:10;;;;;;;6.93;2.97;;;;;;;;;;4918262;29;20426;-74
2023/11/25 11:32:37;;;;;;;26.97;4.50;;;;;;;;;;4920596;29;20506;-75
2023/11/25 11:35:03;;;;;;;7.13;2.43;;;;;;;;;;4938595;29;20521;-75
2023/11/25 11:37:37;;;;;;;21.93;3.77;;;;;;;;;;4937802;29;20422;-75
2023/11/25 11:40:04;;;;;;;11.33;2.83;;;;;;;;;;4938098;29;20416;-75
2023/11/25 11:42:39;;;;;;;5.90;2.37;;;;;;;;;;4938644;29;20429;-75
2023/11/25 11:45:21;;;;;;;13.87;4.37;;;;;;;;;;4938276;29;20413;-75
2023/11/25 11:47:51;;;;;;;8.23;3.47;;;;;;;;;;4927265;29;20418;-73
2023/11/25 11:50:18;;;;;;;8.73;2.60;;;;;;;;;;4918931;29;20894;-74
2023/11/25 11:52:45;;;;;;;4.40;2.93;;;;;;;;;;4918805;29;20740;-74
2023/11/25 11:55:30;;;;;;;11.73;2.53;;;;;;;;;;4918974;29;20883;-74
2023/11/25 11:58:04;;;;;;;5.33;2.30;;;;;;;;;;4917336;29;20414;-74
2023/11/25 12:00:32;;;;;;;7.30;3.37;;;;;;;;;;4918732;29;20798;-74
2023/11/25 12:02:58;;;;;;;14.50;6.90;;;;;;;;;;4920563;29;20419;-73
2023/11/25 12:05:25;;;;;;;15.63;3.17;;;;;;;;;;4919189;29;20492;-74
2023/11/25 12:07:51;;;;;;;5.73;2.70;;;;;;;;;;4918395;29;20410;-74
2023/11/25 12:10:19;;;;;;;16.77;3.30;;;;;;;;;;4919245;29;20429;-75
2023/11/25 12:12:45;;;;;;;9.53;2.73;;;;;;;;;;4921780;29;20495;-75
2023/11/25 12:15:11;;;;;;;5.27;2.13;;;;;;;;;;4943205;23;20458;-74
2023/11/25 12:17:40;;;;;;;10.57;2.90;;;;;;;;;;4936188;29;20783;-73
2023/11/25 12:20:10;;;;;;;5.93;1.90;;;;;;;;;;4936533;29;20518;-73
2023/11/25 12:22:36;;;;;;;10.70;2.30;;;;;;;;;;4936616;29;20417;-73
2023/11/25 12:25:03;;;;;;;2.40;2.03;;;;;;;;;;4936567;29;20406;-73
2023/11/25 12:27:29;;;;;;;10.67;1.90;;;;;;;;;;4936471;29;20413;-73
2023/11/25 12:29:55;;;;;;;5.80;2.50;;;;;;;;;;4936559;29;20417;-73
2023/11/25 12:32:21;;;;;;;12.13;2.83;;;;;;;;;;4936506;29;20421;-73
2023/11/25 12:34:48;;;;;;;4.43;2.40;;;;;;;;;;4935897;29;20564;-73
2023/11/25 12:37:15;;;;;;;9.00;2.57;;;;;;;;;;4935842;29;20489;-73
2023/11/25 12:39:41;;;;;;;19.87;3.60;;;;;;;;;;4936227;29;20414;-73
2023/11/25 12:42:08;;;;;;;8.50;2.37;;;;;;;;;;4936611;29;20420;-73
2023/11/25 12:45:01;;;;;;;7.73;2.43;;;;;;;;;;4935170;29;20460;-73
2023/11/25 12:47:28;;;;;;;6.47;1.90;;;;;;;;;;4934525;29;20434;-73
2023/11/25 12:50:04;;;;;;;8.30;2.40;;;;;;;;;;4935173;29;20773;-74
2023/11/25 12:52:30;;;;;;;4.50;2.07;;;;;;;;;;4936659;29;20788;-75
2023/11/25 12:54:56;;;;;;;5.53;2.60;;;;;;;;;;4935809;29;20461;-73
2023/11/25 12:57:28;;;;;;;3.40;2.17;;;;;;;;;;4935825;29;20421;-74
2023/11/25 12:59:55;;;;;;;7.57;2.00;;;;;;;;;;4935876;29;20909;-74
2023/11/25 13:02:21;;;;;;;4.80;2.20;;;;;;;;;;4935447;29;20828;-73
2023/11/25 13:04:49;;;;;;;4.87;2.00;;;;;;;;;;4935945;29;20426;-74
2023/11/25 13:07:31;;;;;;;6.63;2.20;;;;;;;;;;4935880;29;20441;-73
2023/11/25 13:09:57;;;;;;;7.67;2.30;;;;;;;;;;4935880;29;20619;-73
2023/11/25 13:12:24;;;;;;;6.27;2.30;;;;;;;;;;4936009;29;20418;-73
2023/11/25 13:14:50;;;;;;;5.90;2.60;;;;;;;;;;4935131;29;20461;-74
2023/11/25 13:17:16;;;;;;;5.13;2.27;;;;;;;;;;4934768;29;20524;-74
2023/11/25 13:19:43;;;;;;;13.40;2.87;;;;;;;;;;4935701;29;20921;-74
2023/11/25 13:22:10;;;;;;;9.93;3.13;;;;;;;;;;4935535;29;20414;-73
2023/11/25 13:24:36;;;;;;;3.07;2.00;;;;;;;;;;4935447;29;20835;-74
2023/11/25 13:27:03;;;;;;;3.70;2.00;;;;;;;;;;4935327;29;20485;-74
2023/11/25 13:29:29;;;;;;;11.50;2.70;;;;;;;;;;4935651;29;20417;-74
2023/11/25 13:31:56;;;;;;;8.20;2.40;;;;;;;;;;4935753;29;20788;-74
2023/11/25 13:34:22;;;;;;;10.40;2.93;;;;;;;;;;4935562;29;20556;-73
2023/11/25 13:36:48;;;;;;;14.33;2.40;;;;;;;;;;4934957;29;20433;-74
2023/11/25 13:39:19;;;;;;;10.87;2.40;;;;;;;;;;4933586;29;20425;-74
2023/11/25 13:41:46;;;;;;;10.33;2.90;;;;;;;;;;4935550;29;20413;-74
2023/11/25 13:44:12;;;;;;;4.50;1.90;;;;;;;;;;4935222;29;20445;-74
2023/11/25 13:46:38;;;;;;;7.07;2.27;;;;;;;;;;4934947;29;20434;-73
2023/11/25 13:49:04;;;;;;;4.33;2.10;;;;;;;;;;4935348;29;20800;-73
2023/11/25 13:51:30;;;;;;;4.63;2.17;;;;;;;;;;4934835;29;20418;-74
2023/11/25 13:53:57;;;;;;;4.90;2.13;;;;;;;;;;4934554;29;20982;-74
2023/11/25 13:56:24;;;;;;;6.13;2.20;;;;;;;;;;4934340;29;20889;-74
2023/11/25 13:58:50;;;;;;;5.40;2.07;;;;;;;;;;4934525;29;20406;-74
2023/11/25 14:01:16;;;;;;;6.50;2.40;;;;;;;;;;4934604;29;20454;-73
2023/11/25 14:03:43;;;;;;;8.90;2.23;;;;;;;;;;4934606;29;20437;-74
2023/11/25 14:06:09;;;;;;;7.63;2.83;;;;;;;;;;4934460;29;20446;-74
2023/11/25 14:08:35;;;;;;;3.03;2.27;;;;;;;;;;4915985;29;20460;-74
2023/11/25 14:11:02;;;;;;;8.83;2.70;;;;;;;;;;4916067;29;20546;-74
2023/11/25 14:13:28;;;;;;;4.63;2.80;;;;;;;;;;4916207;29;20451;-74
2023/11/25 14:15:54;;;;;;;14.10;3.33;;;;;;;;;;4915774;29;20908;-74
2023/11/25 14:18:20;;;;;;;5.77;2.30;;;;;;;;;;4917246;29;20782;-74
2023/11/25 14:20:47;;;;;;;4.70;2.70;;;;;;;;;;4921799;29;20423;-74
2023/11/25 14:23:14;;;;;;;4.67;2.70;;;;;;;;;;4935160;29;20485;-74
2023/11/25 14:25:40;;;;;;;5.57;2.67;;;;;;;;;;4933323;29;20986;-73
2023/11/25 14:28:07;;;;;;;5.77;2.50;;;;;;;;;;4934290;29;20454;-74
2023/11/25 14:30:33;;;;;;;7.60;3.20;;;;;;;;;;4934656;29;20457;-74
2023/11/25 14:32:59;;;;;;;9.07;2.87;;;;;;;;;;4933633;29;20425;-74
2023/11/25 14:35:25;;;;;;;10.70;2.60;;;;;;;;;;4934589;29;20500;-74
2023/11/25 14:37:54;;;;;;;6.93;3.00;;;;;;;;;;4935723;29;20410;-74
2023/11/25 14:40:20;;;;;;;8.60;4.10;;;;;;;;;;4938253;29;20409;-73
2023/11/25 14:42:46;;;;;;;8.73;2.70;;;;;;;;;;4936536;29;20420;-73
2023/11/25 14:45:12;;;;;;;10.47;3.10;;;;;;;;;;4937614;29;20418;-73
2023/11/25 14:47:39;;;;;;;12.03;3.57;;;;;;;;;;4934536;29;20413;-74
2023/11/25 14:50:11;;;;;;;5.57;2.33;;;;;;;;;;4934236;29;20901;-74
2023/11/25 14:52:37;;;;;;;19.10;3.00;;;;;;;;;;4933138;29;20933;-74
2023/11/25 14:55:03;;;;;;;12.80;3.20;;;;;;;;;;4934193;29;20512;-74
2023/11/25 14:57:30;;;;;;;8.70;2.57;;;;;;;;;;4934548;29;20413;-74
2023/11/25 14:59:56;;;;;;;9.30;2.90;;;;;;;;;;4932800;29;20425;-74
2023/11/25 15:02:22;;;;;;;7.97;2.50;;;;;;;;;;4934412;29;20874;-74
2023/11/25 15:04:48;;;;;;;5.83;2.50;;;;;;;;;;4934148;29;20414;-74
2023/11/25 15:07:14;;;;;;;6.90;2.57;;;;;;;;;;4933928;29;20444;-74
2023/11/25 15:09:40;;;;;;;4.87;2.30;;;;;;;;;;4933621;29;20425;-73
2023/11/25 15:12:06;;;;;;;6.27;2.57;;;;;;;;;;4933256;29;20504;-74
2023/11/25 15:14:32;;;;;;;6.70;2.80;;;;;;;;;;4934451;29;20461;-74
2023/11/25 15:16:59;;;;;;;9.80;2.17;;;;;;;;;;4933664;29;20952;-74
2023/11/25 15:19:25;;;;;;;4.80;2.27;;;;;;;;;;4934362;29;20894;-74
2023/11/25 15:21:53;;;;;;;4.50;2.50;;;;;;;;;;4934585;29;20497;-74
2023/11/25 15:24:19;;;;;;;23.10;3.37;;;;;;;;;;4934033;29;20422;-74
2023/11/25 15:26:45;;;;;;;7.60;2.40;;;;;;;;;;4936881;29;20960;-74
2023/11/25 15:29:12;;;;;;;6.70;2.60;;;;;;;;;;4937854;29;20409;-74
2023/11/25 15:31:39;;;;;;;10.13;2.33;;;;;;;;;;4937921;29;20477;-74
2023/11/25 15:34:07;;;;;;;5.17;2.17;;;;;;;;;;4937253;29;20421;-74
2023/11/25 15:36:34;;;;;;;2.40;2.10;;;;;;;;;;4938131;29;20433;-74
2023/11/25 15:38:59;;;;;;;8.43;2.63;;;;;;;;;;4937184;29;20432;-73
2023/11/25 15:41:25;;;;;;;4.00;2.57;;;;;;;;;;4937320;29;20864;-73
2023/11/25 15:43:51;;;;;;;6.20;2.70;;;;;;;;;;4937161;29;20421;-74
2023/11/25 15:46:17;;;;;;;4.90;2.70;;;;;;;;;;4935847;29;20507;-74
2023/11/25 15:48:43;;;;;;;4.70;3.07;;;;;;;;;;4936923;29;20425;-74
2023/11/25 15:51:10;;;;;;;8.60;2.20;;;;;;;;;;4937433;29;20522;-74
2023/11/25 15:53:36;;;;;;;4.13;3.00;;;;;;;;;;4937243;29;20798;-74
2023/11/25 15:56:02;;;;;;;11.23;2.40;;;;;;;;;;4936573;29;20476;-74
2023/11/25 15:58:29;;;;;;;3.53;2.03;;;;;;;;;;4936889;29;20525;-74
2023/11/25 16:00:55;;;;;;;2.50;1.73;;;;;;;;;;4937339;29;20418;-73
2023/11/25 16:03:23;;;;;;;3.37;2.27;;;;;;;;;;4937384;29;20473;-74
2023/11/25 16:05:49;;;;;;;4.70;2.03;;;;;;;;;;4935882;29;20478;-74
2023/11/25 16:08:15;;;;;;;3.97;2.20;;;;;;;;;;4935929;29;20788;-74
2023/11/25 16:10:41;;;;;;;5.90;2.10;;;;;;;;;;4936602;29;20445;-74
2023/11/25 16:13:07;;;;;;;2.70;1.80;;;;;;;;;;4937052;29;20421;-74
2023/11/25 16:15:33;;;;;;;4.97;2.90;;;;;;;;;;4936531;29;20473;-74
2023/11/25 16:17:59;;;;;;;11.40;2.33;;;;;;;;;;4936634;29;20442;-73
2023/11/25 16:20:26;;;;;;;8.07;2.27;;;;;;;;;;4937249;29;20532;-74
2023/11/25 16:22:52;;;;;;;4.50;1.83;;;;;;;;;;4936551;29;20906;-74
2023/11/25 16:25:18;;;;;;;5.07;1.50;;;;;;;;;;4938661;29;20535;-73
2023/11/25 16:27:45;;;;;;;17.13;2.43;;;;;;;;;;4945620;29;20440;-73
2023/11/25 16:30:14;;;;;;;2.23;2.00;;;;;;;;;;4946033;29;20414;-73
2023/11/25 16:32:40;;;;;;;6.80;2.40;;;;;;;;;;4941224;29;20954;-73
2023/11/25 16:35:07;;;;;;;7.50;2.00;;;;;;;;;;4942754;29;20500;-73
2023/11/25 16:37:33;;;;;;;2.50;1.90;;;;;;;;;;4944702;29;20414;-73
2023/11/25 16:40:00;;;;;;;7.00;2.30;;;;;;;;;;4944948;29;20436;-73
2023/11/25 16:42:27;;;;;;;5.10;2.00;;;;;;;;;;4937192;29;20475;-74
2023/11/25 16:44:53;;;;;;;2.90;2.10;;;;;;;;;;4936638;29;20422;-72
2023/11/25 16:47:18;;;;;;;4.73;1.97;;;;;;;;;;4935360;29;20536;-75
2023/11/25 16:49:44;;;;;;;4.40;1.93;;;;;;;;;;4944869;29;20972;-76
2023/11/25 16:52:10;;;;;;;3.97;2.40;;;;;;;;;;4929749;29;20871;-75
2023/11/25 16:54:38;;;;;;;5.43;2.70;;;;;;;;;;4935767;29;20492;-75
2023/11/25 16:57:04;;;;;;;6.57;2.27;;;;;;;;;;4935458;29;20437;-75
2023/11/25 16:59:30;;;;;;;5.53;2.47;;;;;;;;;;4935944;29;20480;-77
2023/11/25 17:01:57;;;;;;;2.90;2.30;;;;;;;;;;4939160;29;20430;-75
2023/11/25 17:04:23;;;;;;;9.17;2.23;;;;;;;;;;4940643;29;20843;-75
2023/11/25 17:06:49;;;;;;;4.30;2.37;;;;;;;;;;4938212;29;20452;-75
2023/11/25 17:09:15;;;;;;;6.67;2.10;;;;;;;;;;4937567;29;20486;-76
2023/11/25 17:11:41;;;;;;;4.93;2.30;;;;;;;;;;4940953;29;20924;-76
2023/11/25 17:14:07;;;;;;;6.07;1.80;;;;;;;;;;4937165;29;20529;-77
2023/11/25 17:16:33;;;;;;;2.93;2.33;;;;;;;;;;4933804;29;20476;-75
2023/11/25 17:18:59;;;;;;;3.13;2.10;;;;;;;;;;4934344;29;20922;-75
2023/11/25 17:21:25;;;;;;;2.33;1.90;;;;;;;;;;4935996;29;20527;-75
2023/11/25 17:23:53;;;;;;;4.30;2.03;;;;;;;;;;4936216;29;20413;-76
2023/11/25 17:26:19;;;;;;;6.60;2.30;;;;;;;;;;4941594;29;20497;-74
2023/11/25 17:28:46;;;;;;;2.80;1.87;;;;;;;;;;4949149;29;20394;-77
2023/11/25 17:31:12;;;;;;;2.13;1.80;;;;;;;;;;4948151;29;20418;-81
2023/11/25 17:33:38;;;;;;;3.43;2.17;;;;;;;;;;4939472;29;20878;-74
2023/11/25 17:36:04;;;;;;;6.97;2.27;;;;;;;;;;4934611;29;20547;-76
2023/11/25 17:38:31;;;;;;;9.40;2.30;;;;;;;;;;4934119;29;20417;-74
2023/11/25 17:40:56;;;;;;;11.40;2.03;;;;;;;;;;4935683;29;20421;-74
2023/11/25 17:43:22;;;;;;;6.17;2.27;;;;;;;;;;4936498;29;20418;-75
2023/11/25 17:45:48;;;;;;;2.73;1.77;;;;;;;;;;4935430;29;20473;-75
2023/11/25 17:48:14;;;;;;;5.07;2.33;;;;;;;;;;4934704;29;20429;-76
2023/11/25 17:50:41;;;;;;;3.10;2.30;;;;;;;;;;4934033;29;20796;-75
2023/11/25 17:53:07;;;;;;;5.40;1.90;;;;;;;;;;4934729;29;20539;-74
2023/11/25 17:55:33;;;;;;;3.50;2.10;;;;;;;;;;4934510;29;21051;-74
2023/11/25 17:57:59;;;;;;;3.60;2.20;;;;;;;;;;4934981;29;20520;-74
2023/11/25 18:00:25;;;;;;;4.80;2.50;;;;;;;;;;4935138;29;20409;-74
2023/11/25 18:02:51;;;;;;;3.50;1.93;;;;;;;;;;4935450;29;20406;-74
2023/11/25 18:05:17;;;;;;;5.07;2.80;;;;;;;;;;4919280;29;20447;-74
2023/11/25 18:07:44;;;;;;;4.23;2.27;;;;;;;;;;4919079;29;20450;-75
2023/11/25 18:10:10;;;;;;;3.30;2.00;;;;;;;;;;4921991;29;20426;-74
2023/11/25 18:12:36;;;;;;;6.10;4.10;;;;;;;;;;4918077;29;20419;-74
2023/11/25 18:15:02;;;;;;;7.30;2.43;;;;;;;;;;4920273;29;20501;-74
2023/11/25 18:17:28;;;;;;;3.93;2.10;;;;;;;;;;4916656;29;20817;-73
2023/11/25 18:19:54;;;;;;;5.77;2.40;;;;;;;;;;4916013;29;20422;-74
2023/11/25 18:22:20;;;;;;;8.87;2.23;;;;;;;;;;4916173;29;20414;-74
2023/11/25 18:24:46;;;;;;;5.50;2.23;;;;;;;;;;4915919;29;20414;-75
2023/11/25 18:27:12;;;;;;;4.13;2.10;;;;;;;;;;4914454;29;20832;-74
2023/11/25 18:29:38;;;;;;;3.10;2.10;;;;;;;;;;4914530;29;20571;-74
2023/11/25 18:32:04;;;;;;;10.70;3.00;;;;;;;;;;4915761;29;20962;-74
2023/11/25 18:34:30;;;;;;;3.90;3.03;;;;;;;;;;4925517;29;20475;-75
2023/11/25 18:36:56;;;;;;;4.63;2.33;;;;;;;;;;4934492;29;20544;-73
2023/11/25 18:39:23;;;;;;;5.60;2.43;;;;;;;;;;4933392;29;20424;-73
2023/11/25 18:41:50;;;;;;;11.33;2.67;;;;;;;;;;4935016;29;20414;-73
2023/11/25 18:44:16;;;;;;;2.50;2.13;;;;;;;;;;4933752;29;20422;-73
2023/11/25 18:46:42;;;;;;;8.07;3.00;;;;;;;;;;4934642;29;20430;-74
2023/11/25 18:49:08;;;;;;;4.50;2.57;;;;;;;;;;4938318;29;20547;-75
2023/11/25 18:51:35;;;;;;;6.47;3.20;;;;;;;;;;4947468;29;20437;-73
2023/11/25 18:54:01;;;;;;;5.40;2.70;;;;;;;;;;4944031;29;20492;-74
2023/11/25 18:56:27;;;;;;;6.80;2.63;;;;;;;;;;4945111;29;20433;-73
2023/11/25 18:58:53;;;;;;;5.70;3.20;;;;;;;;;;4941352;29;20482;-74
2023/11/25 19:01:33;;;;;;;12.67;3.23;;;;;;;;;;4939423;29;20457;-73
2023/11/25 19:03:59;;;;;;;4.50;2.37;;;;;;;;;;4940447;29;20413;-72
2023/11/25 19:06:25;;;;;;;10.57;2.87;;;;;;;;;;4937986;29;20452;-73
2023/11/25 19:08:51;;;;;;;4.90;2.60;;;;;;;;;;4938817;29;20449;-74
2023/11/25 19:11:17;;;;;;;4.10;3.10;;;;;;;;;;4937813;29;20429;-74
2023/11/25 19:13:43;;;;;;;3.47;2.70;;;;;;;;;;4937175;29;20456;-74
2023/11/25 19:16:10;;;;;;;7.90;3.43;;;;;;;;;;4936922;29;20840;-73
2023/11/25 19:18:36;;;;;;;5.83;2.87;;;;;;;;;;4937780;29;20500;-73
2023/11/25 19:21:04;;;;;;;14.40;3.47;;;;;;;;;;4938154;29;20513;-73
2023/11/25 19:23:30;;;;;;;8.97;3.60;;;;;;;;;;4938138;29;20505;-73
2023/11/25 19:25:56;;;;;;;6.07;3.90;;;;;;;;;;4936573;29;20509;-73
2023/11/25 19:28:22;;;;;;;7.80;3.90;;;;;;;;;;4937784;29;20464;-73
2023/11/25 19:30:48;;;;;;;6.80;3.50;;;;;;;;;;4936748;29;20425;-73
2023/11/25 19:33:14;;;;;;;7.53;3.00;;;;;;;;;;4937794;29;20425;-72
2023/11/25 19:35:40;;;;;;;7.50;3.40;;;;;;;;;;4937692;29;20530;-73
2023/11/25 19:38:08;;;;;;;8.13;3.00;;;;;;;;;;4937890;29;20896;-73
2023/11/25 19:40:34;;;;;;;4.27;2.70;;;;;;;;;;4937557;29;20412;-73
2023/11/25 19:43:00;;;;;;;5.17;3.03;;;;;;;;;;4937684;29;20874;-73
2023/11/25 19:45:26;;;;;;;9.97;3.53;;;;;;;;;;4937751;29;20450;-73
2023/11/25 19:47:52;;;;;;;6.53;3.03;;;;;;;;;;4937225;29;20936;-73
2023/11/25 19:50:19;;;;;;;4.57;3.00;;;;;;;;;;4937655;29;20492;-73
2023/11/25 19:52:46;;;;;;;9.90;3.57;;;;;;;;;;4937805;29;20629;-74
2023/11/25 19:55:12;;;;;;;6.53;3.10;;;;;;;;;;4936117;29;20604;-73
2023/11/25 19:57:39;;;;;;;5.03;3.13;;;;;;;;;;4937074;29;20421;-73
2023/11/25 20:00:09;;;;;;;7.37;3.17;;;;;;;;;;4936042;29;20418;-72
2023/11/25 20:02:35;;;;;;;5.80;2.97;;;;;;;;;;4937542;29;20425;-72
2023/11/25 20:05:01;;;;;;;3.87;2.80;;;;;;;;;;4937412;29;20421;-73
2023/11/25 20:07:27;;;;;;;4.57;3.13;;;;;;;;;;4937499;29;20418;-74
2023/11/25 20:09:55;;;;;;;10.10;3.20;;;;;;;;;;4937412;29;20480;-73
2023/11/25 20:12:21;;;;;;;8.03;3.90;;;;;;;;;;4936919;29;20425;-73
2023/11/25 20:14:47;;;;;;;8.03;4.13;;;;;;;;;;4937495;29;20983;-73
2023/11/25 20:17:13;;;;;;;7.73;4.00;;;;;;;;;;4936781;29;20472;-74
2023/11/25 20:19:39;;;;;;;7.93;3.40;;;;;;;;;;4937199;29;20465;-73
2023/11/25 20:22:08;;;;;;;11.97;4.33;;;;;;;;;;4937425;29;20811;-73
2023/11/25 20:24:34;;;;;;;5.30;3.33;;;;;;;;;;4937179;29;20417;-73
2023/11/25 20:27:00;;;;;;;9.17;3.83;;;;;;;;;;4936795;29;20429;-73
2023/11/25 20:29:26;;;;;;;4.80;3.37;;;;;;;;;;4936869;29;20428;-74
2023/11/25 20:31:53;;;;;;;12.50;4.10;;;;;;;;;;4936867;29;20765;-73
2023/11/25 20:34:19;;;;;;;8.03;3.70;;;;;;;;;;4937089;29;20522;-73
2023/11/25 20:36:45;;;;;;;7.60;4.00;;;;;;;;;;4936718;29;20520;-72
2023/11/25 20:39:12;;;;;;;8.37;3.70;;;;;;;;;;4937260;29;20405;-72